Terminal Aerodrome Forecast
Issued by NWS

Current Version | Previous Version | Text Only | Print | Product List | Glossary On
Versions: 1 2 3 4 5 6 7 8 9 10 11 12 13 14 15 16 17 18 19 20 21
000
FTUS41 KBTV 240224 AAA
TAFSLK
TAF AMD
KSLK 240224Z 2402/2424 21012G20KT 2SM -RA BR BKN006 WS020/21045KT
      TEMPO 2402/2404 3SM -RA OVC015
     FM240400 24011G19KT P6SM VCSH OVC010 WS020/26040KT
     FM240800 25010G20KT P6SM VCSH OVC008
     FM241200 26010G19KT P6SM OVC010
     FM241600 30006KT P6SM BKN035
     FM242100 VRB03KT P6SM SCT120=

USA.gov is the U.S. government's official web portal to all federal, state and local government web resources and services.